createdAt,value
2022-10-27T00:01:51.498Z,11.47
2022-10-27T00:04:20.262Z,9.13
2022-10-27T00:06:48.930Z,8.67
2022-10-27T00:09:19.133Z,10.90
2022-10-27T00:14:21.699Z,8.83
2022-10-27T00:16:55.234Z,8.93
2022-10-27T00:19:24.930Z,8.37
2022-10-27T00:21:54.072Z,8.87
2022-10-27T00:24:24.333Z,9.37
2022-10-27T00:26:53.038Z,7.93
2022-10-27T00:29:21.700Z,9.90
2022-10-27T00:31:50.307Z,8.13
2022-10-27T00:34:19.126Z,7.93
2022-10-27T00:36:47.786Z,7.70
2022-10-27T00:39:16.448Z,7.40
2022-10-27T00:41:47.279Z,8.13
2022-10-27T00:44:36.845Z,7.20
2022-10-27T00:47:12.511Z,7.10
2022-10-27T00:49:44.896Z,7.23
2022-10-27T00:52:19.279Z,7.50
2022-10-27T00:54:48.749Z,7.70
2022-10-27T00:57:18.865Z,7.20
2022-10-27T00:59:47.537Z,7.00
2022-10-27T01:02:16.509Z,7.07
2022-10-27T01:04:50.618Z,7.63
2022-10-27T01:07:22.126Z,7.00
2022-10-27T01:09:51.393Z,7.80
2022-10-27T01:14:51.208Z,7.00
2022-10-27T01:17:35.633Z,6.97
2022-10-27T01:20:31.222Z,7.87
2022-10-27T01:23:03.659Z,6.67
2022-10-27T01:25:54.507Z,7.03
2022-10-27T01:29:03.651Z,7.03
2022-10-27T01:31:40.815Z,6.23
2022-10-27T01:34:17.495Z,7.07
2022-10-27T01:36:52.552Z,7.37
2022-10-27T01:39:27.279Z,6.80
2022-10-27T01:42:02.591Z,7.10
2022-10-27T01:44:37.507Z,6.77
2022-10-27T01:47:09.079Z,6.97
2022-10-27T01:49:38.388Z,6.73
2022-10-27T01:52:08.472Z,6.70
2022-10-27T01:54:41.320Z,6.40
2022-10-27T01:57:25.980Z,6.50
2022-10-27T02:00:02.794Z,6.80
2022-10-27T02:02:45.352Z,7.03
2022-10-27T02:05:21.432Z,7.50
2022-10-27T02:07:57.690Z,7.53
2022-10-27T02:10:30.094Z,7.57
2022-10-27T02:12:59.552Z,7.30
2022-10-27T02:15:33.668Z,7.90
2022-10-27T02:18:06.857Z,6.83
2022-10-27T02:20:38.428Z,6.53
2022-10-27T02:23:10.313Z,7.07
2022-10-27T02:25:43.843Z,6.43
2022-10-27T02:28:17.314Z,6.37
2022-10-27T02:33:22.324Z,6.47
2022-10-27T02:35:51.097Z,6.33
2022-10-27T02:38:19.802Z,7.40
2022-10-27T02:40:48.909Z,7.17
2022-10-27T02:43:17.656Z,6.80
2022-10-27T02:45:46.317Z,6.63
2022-10-27T02:48:15.008Z,6.83
2022-10-27T02:50:45.072Z,6.47
2022-10-27T02:53:13.697Z,6.73
2022-10-27T02:55:42.351Z,6.77
2022-10-27T02:58:10.974Z,6.67
2022-10-27T03:00:39.893Z,7.30
2022-10-27T03:03:08.682Z,6.70
2022-10-27T03:05:37.385Z,7.00
2022-10-27T03:08:07.902Z,8.10
2022-10-27T03:10:36.650Z,7.57
2022-10-27T03:13:05.311Z,7.50
2022-10-27T03:15:34.784Z,6.23
2022-10-27T03:18:03.784Z,6.30
2022-10-27T03:20:32.567Z,5.80
2022-10-27T03:23:01.250Z,5.90
2022-10-27T03:25:31.302Z,6.17
2022-10-27T03:27:59.941Z,5.77
2022-10-27T03:30:28.640Z,5.80
2022-10-27T03:32:58.530Z,5.87
2022-10-27T03:35:28.008Z,5.80
2022-10-27T03:37:57.693Z,6.00
2022-10-27T03:40:28.697Z,5.63
2022-10-27T03:42:59.765Z,6.00
2022-10-27T03:45:29.426Z,5.60
2022-10-27T03:48:02.311Z,5.57
2022-10-27T03:50:31.976Z,5.13
2022-10-27T03:53:01.054Z,5.53
2022-10-27T03:55:29.736Z,5.90
2022-10-27T03:58:00.698Z,6.00
2022-10-27T04:00:31.647Z,6.23
2022-10-27T04:03:00.646Z,6.53
2022-10-27T04:05:29.315Z,5.67
2022-10-27T04:07:57.960Z,5.83
2022-10-27T04:10:26.955Z,6.37
2022-10-27T04:12:57.841Z,5.50
2022-10-27T04:15:29.323Z,5.53
2022-10-27T04:18:00.066Z,6.03
2022-10-27T04:20:29.857Z,6.20
2022-10-27T04:22:59.125Z,5.53
2022-10-27T04:25:28.614Z,5.83
2022-10-27T04:28:03.170Z,5.67
2022-10-27T04:30:33.501Z,5.97
2022-10-27T04:33:02.216Z,6.30
2022-10-27T04:35:31.489Z,5.73
2022-10-27T04:38:00.215Z,5.80
2022-10-27T04:40:28.832Z,5.60
2022-10-27T04:42:57.486Z,5.40
2022-10-27T04:45:26.307Z,6.37
2022-10-27T04:47:57.024Z,5.70
2022-10-27T04:50:25.714Z,5.57
2022-10-27T04:52:58.215Z,5.43
2022-10-27T04:55:27.747Z,5.83
2022-10-27T04:57:56.690Z,5.40
2022-10-27T05:00:27.168Z,6.10
2022-10-27T05:02:59.051Z,6.00
2022-10-27T05:05:30.394Z,6.33
2022-10-27T05:08:01.064Z,5.90
2022-10-27T05:10:31.159Z,6.50
2022-10-27T05:13:00.101Z,6.70
2022-10-27T05:15:29.317Z,5.97
2022-10-27T05:17:59.499Z,6.77
2022-10-27T05:20:28.247Z,5.93
2022-10-27T05:22:56.868Z,6.37
2022-10-27T05:25:25.648Z,6.40
2022-10-27T05:27:54.874Z,6.10
2022-10-27T05:30:23.903Z,5.97
2022-10-27T05:32:52.517Z,6.77
2022-10-27T05:35:22.607Z,6.90
2022-10-27T05:37:51.518Z,6.90
2022-10-27T05:40:20.584Z,6.87
2022-10-27T05:42:53.523Z,6.83
2022-10-27T05:45:24.158Z,6.80
2022-10-27T05:47:59.663Z,7.57
2022-10-27T05:50:31.235Z,6.70
2022-10-27T05:53:00.043Z,6.97
2022-10-27T05:55:28.979Z,7.07
2022-10-27T05:57:59.109Z,6.80
2022-10-27T06:00:30.664Z,7.57
2022-10-27T06:03:00.224Z,7.23
2022-10-27T06:05:32.195Z,5.77
2022-10-27T06:08:00.978Z,6.10
2022-10-27T06:10:30.091Z,5.90
2022-10-27T06:13:05.699Z,6.60
2022-10-27T06:15:35.640Z,6.90
2022-10-27T06:18:04.438Z,7.80
2022-10-27T06:20:34.580Z,6.83
2022-10-27T06:23:03.328Z,6.37
2022-10-27T06:25:31.996Z,9.43
2022-10-27T06:28:00.779Z,7.63
2022-10-27T06:30:34.003Z,5.53
2022-10-27T06:33:15.675Z,6.07
2022-10-27T06:35:47.240Z,7.33
2022-10-27T06:38:17.017Z,7.63
2022-10-27T06:40:45.903Z,8.33
2022-10-27T06:43:15.540Z,7.23
2022-10-27T06:45:48.953Z,6.53
2022-10-27T06:48:17.862Z,7.10
2022-10-27T06:50:47.889Z,6.50
2022-10-27T06:53:18.234Z,6.33
2022-10-27T06:55:46.990Z,6.73
2022-10-27T06:58:15.819Z,7.13
2022-10-27T07:00:44.471Z,7.47
2022-10-27T07:03:14.272Z,8.53
2022-10-27T07:05:42.898Z,8.23
2022-10-27T07:08:14.162Z,8.30
2022-10-27T07:10:42.878Z,7.57
2022-10-27T07:13:11.535Z,9.73
2022-10-27T07:15:40.440Z,8.93
2022-10-27T07:18:11.652Z,8.47
2022-10-27T07:20:40.429Z,6.27
2022-10-27T07:23:11.361Z,7.50
2022-10-27T07:25:42.597Z,7.13
2022-10-27T07:28:11.299Z,7.50
2022-10-27T07:30:43.665Z,7.43
2022-10-27T07:33:12.542Z,6.87
2022-10-27T07:35:41.650Z,7.77
2022-10-27T07:38:11.054Z,7.73
2022-10-27T07:40:39.700Z,8.80
2022-10-27T07:43:10.654Z,8.27
2022-10-27T07:45:41.135Z,8.70
2022-10-27T07:48:13.303Z,8.27
2022-10-27T07:50:42.466Z,9.23
2022-10-27T07:53:11.888Z,9.47
2022-10-27T07:55:40.607Z,10.10
2022-10-27T07:58:12.302Z,9.97
2022-10-27T08:00:42.664Z,9.97
2022-10-27T08:03:15.138Z,9.43
2022-10-27T08:05:45.604Z,9.57
2022-10-27T08:08:14.496Z,9.80
2022-10-27T08:10:45.175Z,9.70
2022-10-27T08:13:15.537Z,10.87
2022-10-27T08:15:44.722Z,11.40
2022-10-27T08:18:14.106Z,11.43
2022-10-27T08:20:44.796Z,10.67
2022-10-27T08:23:15.489Z,10.20
2022-10-27T08:25:45.117Z,10.67
2022-10-27T08:28:16.272Z,11.10
2022-10-27T08:30:51.901Z,11.00
2022-10-27T08:33:22.012Z,10.60
2022-10-27T08:35:51.825Z,9.10
2022-10-27T08:38:20.991Z,9.63
2022-10-27T08:41:05.199Z,9.10
2022-10-27T08:44:12.191Z,9.77
2022-10-27T08:46:45.893Z,9.03
2022-10-27T08:49:28.450Z,10.00
2022-10-27T08:52:01.583Z,10.17
2022-10-27T08:54:30.550Z,11.13
2022-10-27T08:57:01.577Z,10.43
2022-10-27T08:59:34.958Z,11.93
2022-10-27T09:02:25.004Z,12.00
2022-10-27T09:05:17.470Z,24.33
2022-10-27T09:07:54.630Z,16.23
2022-10-27T09:10:40.091Z,12.53
2022-10-27T09:13:22.463Z,11.60
2022-10-27T09:15:55.870Z,12.50
2022-10-27T09:18:28.972Z,12.73
2022-10-27T09:20:59.817Z,13.60
2022-10-27T09:23:34.262Z,13.43
2022-10-27T09:26:03.153Z,13.57
2022-10-27T09:28:39.409Z,13.37
2022-10-27T09:31:15.700Z,10.97
2022-10-27T09:33:54.470Z,11.83
2022-10-27T09:36:24.795Z,11.43
2022-10-27T09:38:53.455Z,11.20
2022-10-27T09:41:22.187Z,11.03
2022-10-27T09:43:58.654Z,11.17
2022-10-27T09:46:31.640Z,11.03
2022-10-27T09:49:08.440Z,10.40
2022-10-27T09:51:46.230Z,10.43
2022-10-27T09:54:31.708Z,11.30
2022-10-27T09:57:09.228Z,10.13
2022-10-27T09:59:39.449Z,10.97
2022-10-27T10:02:26.106Z,11.43
2022-10-27T10:04:55.067Z,10.00
2022-10-27T10:07:36.644Z,9.53
2022-10-27T10:10:09.525Z,9.40
2022-10-27T10:12:38.241Z,10.77
2022-10-27T10:15:21.181Z,11.93
2022-10-27T10:17:57.788Z,11.23
2022-10-27T10:20:35.316Z,11.47
2022-10-27T10:23:08.825Z,11.33
2022-10-27T10:25:47.453Z,11.07
2022-10-27T10:28:22.547Z,11.00
2022-10-27T10:30:53.473Z,9.83
2022-10-27T10:33:25.910Z,8.73
2022-10-27T10:35:55.323Z,9.37
2022-10-27T10:38:34.373Z,9.73
2022-10-27T10:41:12.050Z,11.07
2022-10-27T10:43:41.423Z,9.03
2022-10-27T10:46:22.242Z,9.70
2022-10-27T10:48:56.470Z,10.17
2022-10-27T10:51:30.962Z,10.47
2022-10-27T10:54:02.627Z,9.87
2022-10-27T10:56:32.979Z,9.13
2022-10-27T10:59:08.950Z,9.13
2022-10-27T11:01:44.704Z,10.93
2022-10-27T11:04:21.025Z,11.13
2022-10-27T11:07:05.890Z,12.10
2022-10-27T11:09:41.414Z,10.87
2022-10-27T11:12:22.715Z,9.20
2022-10-27T11:14:54.691Z,10.23
2022-10-27T11:17:27.186Z,9.30
2022-10-27T11:19:58.287Z,9.53
2022-10-27T11:22:28.796Z,7.67
2022-10-27T11:25:04.941Z,8.40
2022-10-27T11:27:40.966Z,7.93
2022-10-27T11:30:21.960Z,8.33
2022-10-27T11:33:00.911Z,8.30
2022-10-27T11:35:35.045Z,7.77
2022-10-27T11:38:09.768Z,8.47
2022-10-27T11:40:47.583Z,7.83
2022-10-27T11:43:24.375Z,7.87
2022-10-27T11:46:01.744Z,7.80
2022-10-27T11:48:36.960Z,7.77
2022-10-27T11:51:12.858Z,8.90
2022-10-27T11:53:41.645Z,7.40
2022-10-27T11:56:29.740Z,8.43
2022-10-27T11:59:11.608Z,7.13
2022-10-27T12:01:52.594Z,8.53
2022-10-27T12:04:33.210Z,7.83
2022-10-27T12:07:12.307Z,7.03
2022-10-27T12:09:56.238Z,7.87
2022-10-27T12:12:30.096Z,7.93
2022-10-27T12:15:06.111Z,7.57
2022-10-27T12:17:43.205Z,8.10
2022-10-27T12:20:25.799Z,8.03
2022-10-27T12:23:01.594Z,6.70
2022-10-27T12:25:35.314Z,7.38
2022-10-27T12:28:07.921Z,7.60
2022-10-27T12:30:42.340Z,7.22
2022-10-27T12:33:19.044Z,7.53
2022-10-27T12:35:52.639Z,6.82
2022-10-27T12:38:31.400Z,7.10
2022-10-27T12:41:07.047Z,7.88
2022-10-27T12:43:42.955Z,7.25
2022-10-27T12:46:27.638Z,8.18
2022-10-27T12:49:08.348Z,7.50
2022-10-27T12:51:45.354Z,9.13
2022-10-27T12:54:31.547Z,7.75
2022-10-27T12:57:14.058Z,7.82
2022-10-27T12:59:52.575Z,7.72
2022-10-27T13:02:27.571Z,8.07
2022-10-27T13:05:30.396Z,7.90
2022-10-27T13:08:21.308Z,7.85
2022-10-27T13:11:14.986Z,7.93
2022-10-27T13:14:16.696Z,8.75
2022-10-27T13:16:59.091Z,7.93
2022-10-27T13:19:31.482Z,9.07
2022-10-27T13:22:08.615Z,8.95
2022-10-27T13:24:46.246Z,8.40
2022-10-27T13:27:21.419Z,8.13
2022-10-27T13:29:53.655Z,9.45
2022-10-27T13:32:32.920Z,8.37
2022-10-27T13:35:34.003Z,9.37
2022-10-27T13:38:22.373Z,10.70
2022-10-27T13:40:51.988Z,9.00
2022-10-27T13:43:48.116Z,8.23
2022-10-27T13:46:19.068Z,9.77
2022-10-27T13:48:49.492Z,8.90
2022-10-27T13:51:48.838Z,7.73
2022-10-27T13:54:53.133Z,7.70
2022-10-27T13:57:59.018Z,7.40
2022-10-27T14:00:51.402Z,7.13
2022-10-27T14:03:47.296Z,7.27
2022-10-27T14:06:26.883Z,7.40
2022-10-27T14:08:55.641Z,8.00
2022-10-27T14:11:28.405Z,6.20
2022-10-27T14:13:59.829Z,7.57
2022-10-27T14:16:34.590Z,7.97
2022-10-27T14:19:14.258Z,7.40
2022-10-27T14:21:46.113Z,8.77
2022-10-27T14:24:20.263Z,8.60
2022-10-27T14:26:48.915Z,8.13
2022-10-27T14:29:23.127Z,7.90
2022-10-27T14:31:53.282Z,8.07
2022-10-27T14:34:25.389Z,7.73
2022-10-27T14:36:56.123Z,8.37
2022-10-27T14:39:29.897Z,9.03
2022-10-27T14:42:02.589Z,10.30
2022-10-27T14:44:34.166Z,9.80
2022-10-27T14:47:07.895Z,9.20
2022-10-27T14:49:40.719Z,8.03
2022-10-27T14:52:21.272Z,9.87
2022-10-27T14:54:54.896Z,8.97
2022-10-27T14:57:32.843Z,8.27
2022-10-27T15:00:05.999Z,8.60
2022-10-27T15:02:36.419Z,8.87
2022-10-27T15:05:15.173Z,7.87
2022-10-27T15:07:47.136Z,8.23
2022-10-27T15:10:19.511Z,8.23
2022-10-27T15:12:56.059Z,9.40
2022-10-27T15:15:30.246Z,10.53
2022-10-27T15:18:04.191Z,9.53
2022-10-27T15:20:34.804Z,8.10
2022-10-27T15:23:04.071Z,8.70
2022-10-27T15:25:34.664Z,8.13
2022-10-27T15:28:04.064Z,8.57
2022-10-27T15:30:43.475Z,8.83
2022-10-27T15:33:34.535Z,14.47
2022-10-27T15:36:19.163Z,9.47
2022-10-27T15:38:51.018Z,8.03
2022-10-27T15:41:22.454Z,9.73
2022-10-27T15:43:52.797Z,9.03
2022-10-27T15:46:33.033Z,9.70
2022-10-27T15:49:20.681Z,12.47
2022-10-27T15:51:53.138Z,16.93
2022-10-27T15:54:29.930Z,14.17
2022-10-27T15:57:00.005Z,13.87
2022-10-27T15:59:29.908Z,16.30
2022-10-27T16:02:03.695Z,16.10
2022-10-27T16:04:36.998Z,15.87
2022-10-27T16:07:32.035Z,16.50
2022-10-27T16:10:01.208Z,15.17
2022-10-27T16:12:38.359Z,15.43
2022-10-27T16:15:16.398Z,14.80
2022-10-27T16:17:48.924Z,15.53
2022-10-27T16:20:21.075Z,18.07
2022-10-27T16:22:50.863Z,12.57
2022-10-27T16:25:23.847Z,11.47
2022-10-27T16:27:52.617Z,11.97
2022-10-27T16:30:23.276Z,12.17
2022-10-27T16:32:57.873Z,10.83
2022-10-27T16:35:28.052Z,9.97
2022-10-27T16:37:57.371Z,10.27
2022-10-27T16:40:26.370Z,11.70
2022-10-27T16:42:57.828Z,11.60
2022-10-27T16:45:26.720Z,13.20
2022-10-27T16:47:56.034Z,10.33
2022-10-27T16:50:25.056Z,12.90
2022-10-27T16:52:56.278Z,11.57
2022-10-27T16:55:25.431Z,11.63
2022-10-27T16:57:57.598Z,11.47
2022-10-27T17:00:26.483Z,8.47
2022-10-27T17:02:55.276Z,10.20
2022-10-27T17:05:24.074Z,9.17
2022-10-27T17:07:56.692Z,10.10
2022-10-27T17:10:25.520Z,9.60
2022-10-27T17:12:54.376Z,13.73
2022-10-27T17:15:23.368Z,10.80
2022-10-27T17:17:52.040Z,8.50
2022-10-27T17:20:20.756Z,9.67
2022-10-27T17:22:49.635Z,11.03
2022-10-27T17:25:19.956Z,10.33
2022-10-27T17:27:48.623Z,13.17
2022-10-27T17:30:17.313Z,12.17
2022-10-27T17:32:47.656Z,11.00
2022-10-27T17:35:18.090Z,10.33
2022-10-27T17:37:46.985Z,10.50
2022-10-27T17:40:15.859Z,8.47
2022-10-27T17:42:45.986Z,9.37
2022-10-27T17:45:15.001Z,9.33
2022-10-27T17:47:44.445Z,8.00
2022-10-27T17:50:13.182Z,7.47
2022-10-27T17:52:43.454Z,8.77
2022-10-27T17:55:12.189Z,7.67
2022-10-27T17:57:40.939Z,8.87
2022-10-27T18:00:12.615Z,8.80
2022-10-27T18:02:41.243Z,8.07
2022-10-27T18:05:09.985Z,9.10
2022-10-27T18:07:38.725Z,10.30
2022-10-27T18:10:08.563Z,9.00
2022-10-27T18:12:37.520Z,11.00
2022-10-27T18:15:24.016Z,10.47
2022-10-27T18:17:56.706Z,10.30
2022-10-27T18:20:25.361Z,8.20
2022-10-27T18:22:54.418Z,7.97
2022-10-27T18:25:23.295Z,8.37
2022-10-27T18:27:51.895Z,8.27
2022-10-27T18:30:20.578Z,7.83
2022-10-27T18:32:49.339Z,6.90
2022-10-27T18:35:19.500Z,6.80
2022-10-27T18:37:48.173Z,7.13
2022-10-27T18:40:17.634Z,6.60
2022-10-27T18:42:46.382Z,7.47
2022-10-27T18:45:15.181Z,7.40
2022-10-27T18:47:45.588Z,8.13
2022-10-27T18:50:15.341Z,9.13
2022-10-27T18:52:45.500Z,9.67
2022-10-27T18:55:14.390Z,9.03
2022-10-27T18:57:43.039Z,10.17
2022-10-27T19:00:12.609Z,9.73
2022-10-27T19:02:41.451Z,10.67
2022-10-27T19:05:11.742Z,12.10
2022-10-27T19:07:40.442Z,9.07
2022-10-27T19:10:11.324Z,9.60
2022-10-27T19:12:40.009Z,10.93
2022-10-27T19:15:09.935Z,11.67
2022-10-27T19:17:39.503Z,9.20
2022-10-27T19:20:08.925Z,11.93
2022-10-27T19:22:38.460Z,9.53
2022-10-27T19:25:07.912Z,12.20
2022-10-27T19:27:38.086Z,7.70
2022-10-27T19:30:07.408Z,8.70
2022-10-27T19:32:36.420Z,9.07
2022-10-27T19:35:05.551Z,7.13
2022-10-27T19:37:34.221Z,7.90
2022-10-27T19:40:02.857Z,13.53
2022-10-27T19:42:31.588Z,7.87
2022-10-27T19:45:02.626Z,11.43
2022-10-27T19:47:31.352Z,9.30
2022-10-27T19:50:00.049Z,8.07
2022-10-27T19:52:28.877Z,5.70
2022-10-27T19:54:58.120Z,6.77
2022-10-27T19:57:26.808Z,8.13
2022-10-27T19:59:55.440Z,7.30
2022-10-27T20:02:25.713Z,4.83
2022-10-27T20:04:54.413Z,6.73
2022-10-27T20:07:23.129Z,6.47
2022-10-27T20:09:51.832Z,8.13
2022-10-27T20:12:21.434Z,8.63
2022-10-27T20:14:50.063Z,8.07
2022-10-27T20:17:20.035Z,10.00
2022-10-27T20:19:50.118Z,7.60
2022-10-27T20:22:18.795Z,18.33
2022-10-27T20:24:51.396Z,6.77
2022-10-27T20:27:23.208Z,6.80
2022-10-27T20:29:51.895Z,7.10
2022-10-27T20:32:20.610Z,8.17
2022-10-27T20:34:51.449Z,7.40
2022-10-27T20:37:20.127Z,7.50
2022-10-27T20:42:18.381Z,6.20
2022-10-27T20:44:46.993Z,6.40
2022-10-27T20:47:15.670Z,5.83
2022-10-27T20:49:44.286Z,3.20
2022-10-27T20:52:14.397Z,3.07
2022-10-27T20:54:43.098Z,3.37
2022-10-27T20:57:11.764Z,7.33
2022-10-27T20:59:40.421Z,12.43
2022-10-27T21:02:11.964Z,4.03
2022-10-27T21:04:40.687Z,2.93
2022-10-27T21:07:09.351Z,3.10
2022-10-27T21:09:39.383Z,3.20
2022-10-27T21:12:09.096Z,4.50
2022-10-27T21:14:37.810Z,4.27
2022-10-27T21:17:06.443Z,4.33
2022-10-27T21:19:35.081Z,5.83
2022-10-27T21:22:03.982Z,6.00
2022-10-27T21:24:32.619Z,4.27
2022-10-27T21:27:02.693Z,3.60
2022-10-27T21:29:31.789Z,2.37
2022-10-27T21:32:00.463Z,3.30
2022-10-27T21:34:29.108Z,2.90
2022-10-27T21:36:57.785Z,3.43
2022-10-27T21:39:26.470Z,25.27
2022-10-27T21:41:55.112Z,4.57
2022-10-27T21:44:27.136Z,4.13
2022-10-27T21:46:55.939Z,2.80
2022-10-27T21:49:24.586Z,3.50
2022-10-27T21:51:53.597Z,4.97
2022-10-27T21:54:22.383Z,6.30
2022-10-27T21:56:51.192Z,3.03
2022-10-27T21:59:19.823Z,5.30
2022-10-27T22:01:50.955Z,2.50
2022-10-27T22:04:19.632Z,1.87
2022-10-27T22:06:48.321Z,3.03
2022-10-27T22:09:17.565Z,2.87
2022-10-27T22:11:46.305Z,1.77
2022-10-27T22:14:15.499Z,2.13
2022-10-27T22:16:44.148Z,1.77
2022-10-27T22:19:14.573Z,3.97
2022-10-27T22:21:43.520Z,2.93
2022-10-27T22:24:12.176Z,2.30
2022-10-27T22:26:42.036Z,2.47
2022-10-27T22:29:11.376Z,3.50
2022-10-27T22:31:40.015Z,3.33
2022-10-27T22:34:08.675Z,3.60
2022-10-27T22:36:38.800Z,3.30
2022-10-27T22:39:07.498Z,4.77
2022-10-27T22:41:36.780Z,3.80
2022-10-27T22:44:06.405Z,2.80
2022-10-27T22:46:38.904Z,3.30
2022-10-27T22:49:07.622Z,2.70
2022-10-27T22:51:37.797Z,3.33
2022-10-27T22:54:06.592Z,3.33
2022-10-27T22:56:35.839Z,3.53
2022-10-27T22:59:08.575Z,3.60
2022-10-27T23:01:39.996Z,3.07
2022-10-27T23:04:11.466Z,3.03
2022-10-27T23:06:42.039Z,3.53
2022-10-27T23:09:14.972Z,4.13
2022-10-27T23:11:45.609Z,4.00
2022-10-27T23:14:15.543Z,3.97
2022-10-27T23:16:44.812Z,4.60
2022-10-27T23:19:14.623Z,4.50
2022-10-27T23:21:44.762Z,7.10
2022-10-27T23:24:15.312Z,4.60
2022-10-27T23:26:43.975Z,4.30
2022-10-27T23:29:14.438Z,4.20
2022-10-27T23:31:43.108Z,5.30
2022-10-27T23:34:13.025Z,4.77
2022-10-27T23:36:44.479Z,5.33
2022-10-27T23:39:14.925Z,5.03
2022-10-27T23:41:43.657Z,4.30
2022-10-27T23:44:12.608Z,5.30
2022-10-27T23:46:41.327Z,6.13
2022-10-27T23:49:10.314Z,3.37
2022-10-27T23:51:39.272Z,2.80
2022-10-27T23:54:08.153Z,1.83
2022-10-27T23:56:38.266Z,2.13
2022-10-27T23:59:08.341Z,2.70
